createdAt,value
2022-11-05T00:00:12.436Z,7.30
2022-11-05T00:02:58.448Z,7.07
2022-11-05T00:05:44.353Z,6.83
2022-11-05T00:08:30.487Z,7.27
2022-11-05T00:10:58.912Z,6.90
2022-11-05T00:13:44.889Z,6.83
2022-11-05T00:16:32.560Z,6.80
2022-11-05T00:19:07.481Z,6.97
2022-11-05T00:21:53.922Z,6.37
2022-11-05T00:24:40.056Z,6.97
2022-11-05T00:27:08.838Z,7.23
2022-11-05T00:29:37.709Z,6.40
2022-11-05T00:32:07.691Z,6.60
2022-11-05T00:34:36.131Z,6.83
2022-11-05T00:37:04.595Z,6.70
2022-11-05T00:39:33.022Z,6.77
2022-11-05T00:42:15.319Z,5.97
2022-11-05T00:45:02.281Z,6.20
2022-11-05T00:47:50.437Z,6.30
2022-11-05T00:50:19.194Z,5.20
2022-11-05T00:52:57.670Z,6.10
2022-11-05T00:55:28.226Z,5.77
2022-11-05T00:57:57.012Z,5.57
2022-11-05T01:00:25.695Z,5.30
2022-11-05T01:02:55.585Z,4.77
2022-11-05T01:05:24.089Z,4.80
2022-11-05T01:07:53.220Z,4.33
2022-11-05T01:10:21.714Z,5.10
2022-11-05T01:12:50.176Z,5.57
2022-11-05T01:15:19.096Z,4.40
2022-11-05T01:17:47.612Z,5.37
2022-11-05T01:20:17.550Z,5.00
2022-11-05T01:22:45.966Z,5.13
2022-11-05T01:25:14.535Z,4.83
2022-11-05T01:27:42.942Z,6.00
2022-11-05T01:30:11.958Z,5.67
2022-11-05T01:32:40.486Z,5.80
2022-11-05T01:35:10.300Z,5.20
2022-11-05T01:37:40.571Z,6.20
2022-11-05T01:40:10.471Z,6.43
2022-11-05T01:42:38.912Z,6.40
2022-11-05T01:45:13.993Z,6.03
2022-11-05T01:47:54.460Z,5.37
2022-11-05T01:50:28.618Z,5.43
2022-11-05T01:53:01.816Z,5.67
2022-11-05T01:55:31.677Z,5.30
2022-11-05T01:58:00.784Z,5.90
2022-11-05T02:00:29.189Z,5.17
2022-11-05T02:02:57.875Z,4.97
2022-11-05T02:05:26.393Z,4.93
2022-11-05T02:07:55.366Z,4.33
2022-11-05T02:10:25.905Z,4.97
2022-11-05T02:12:54.495Z,4.37
2022-11-05T02:15:26.728Z,4.97
2022-11-05T02:18:01.009Z,4.50
2022-11-05T02:20:42.658Z,4.93
2022-11-05T02:23:30.511Z,4.70
2022-11-05T02:26:06.993Z,5.20
2022-11-05T02:28:47.046Z,4.17
2022-11-05T02:31:19.656Z,4.23
2022-11-05T02:33:56.799Z,4.17
2022-11-05T02:36:32.270Z,4.30
2022-11-05T02:39:08.815Z,4.00
2022-11-05T02:41:41.827Z,3.93
2022-11-05T02:44:16.824Z,4.33
2022-11-05T02:46:50.349Z,3.87
2022-11-05T02:49:21.408Z,4.00
2022-11-05T02:51:53.435Z,4.20
2022-11-05T02:54:25.126Z,4.03
2022-11-05T02:56:54.742Z,5.13
2022-11-05T02:59:23.183Z,4.87
2022-11-05T03:01:53.895Z,4.03
2022-11-05T03:04:23.700Z,3.80
2022-11-05T03:07:06.277Z,4.23
2022-11-05T03:09:52.439Z,4.83
2022-11-05T03:12:25.971Z,4.73
2022-11-05T03:14:58.547Z,4.10
2022-11-05T03:17:33.136Z,4.30
2022-11-05T03:20:05.048Z,4.27
2022-11-05T03:22:38.948Z,3.80
2022-11-05T03:25:10.392Z,4.60
2022-11-05T03:27:41.785Z,4.93
2022-11-05T03:30:12.207Z,4.60
2022-11-05T03:32:43.658Z,5.43
2022-11-05T03:35:14.666Z,5.27
2022-11-05T03:37:44.565Z,5.57
2022-11-05T03:40:14.102Z,5.43
2022-11-05T03:42:43.766Z,4.53
2022-11-05T03:45:15.182Z,4.87
2022-11-05T03:47:47.475Z,5.30
2022-11-05T03:50:17.305Z,6.13
2022-11-05T03:52:47.559Z,5.07
2022-11-05T03:55:16.295Z,7.17
2022-11-05T03:57:48.388Z,4.50
2022-11-05T04:00:17.121Z,5.93
2022-11-05T04:02:47.017Z,5.60
2022-11-05T04:05:15.651Z,5.37
2022-11-05T04:08:02.438Z,5.10
2022-11-05T04:10:59.894Z,5.30
2022-11-05T04:13:28.522Z,4.93
2022-11-05T04:16:15.033Z,5.77
2022-11-05T04:18:44.915Z,4.73
2022-11-05T04:21:30.959Z,4.80
2022-11-05T04:24:11.425Z,5.70
2022-11-05T04:26:40.212Z,4.63
2022-11-05T04:29:27.081Z,5.20
2022-11-05T04:31:55.518Z,4.10
2022-11-05T04:34:25.317Z,5.00
2022-11-05T04:36:54.367Z,4.00
2022-11-05T04:39:23.167Z,4.20
2022-11-05T04:41:51.617Z,4.27
2022-11-05T04:44:20.073Z,4.40
2022-11-05T04:46:48.550Z,3.90
2022-11-05T04:49:17.024Z,4.00
2022-11-05T04:51:46.982Z,4.30
2022-11-05T04:54:15.401Z,4.93
2022-11-05T04:56:43.784Z,5.20
2022-11-05T04:59:12.286Z,4.67
2022-11-05T05:01:40.926Z,4.20
2022-11-05T05:04:09.509Z,3.93
2022-11-05T05:06:38.443Z,4.40
2022-11-05T05:09:08.257Z,4.97
2022-11-05T05:11:36.857Z,4.57
2022-11-05T05:14:05.450Z,5.03
2022-11-05T05:16:33.890Z,5.20
2022-11-05T05:19:02.297Z,4.20
2022-11-05T05:21:38.509Z,4.83
2022-11-05T05:24:09.855Z,5.93
2022-11-05T05:26:38.919Z,5.10
2022-11-05T05:29:07.668Z,4.93
2022-11-05T05:31:36.179Z,5.53
2022-11-05T05:34:04.887Z,4.90
2022-11-05T05:36:33.573Z,4.70
2022-11-05T05:39:02.033Z,5.00
2022-11-05T05:41:32.070Z,5.90
2022-11-05T05:44:00.486Z,5.47
2022-11-05T05:46:28.946Z,4.47
2022-11-05T05:48:57.396Z,6.30
2022-11-05T05:51:25.862Z,5.03
2022-11-05T05:53:54.998Z,4.60
2022-11-05T05:56:23.527Z,4.40
2022-11-05T05:58:54.714Z,5.53
2022-11-05T06:01:23.253Z,5.60
2022-11-05T06:03:51.751Z,6.13
2022-11-05T06:06:21.182Z,5.40
2022-11-05T06:08:50.296Z,4.70
2022-11-05T06:11:18.724Z,5.20
2022-11-05T06:13:47.095Z,4.73
2022-11-05T06:16:19.345Z,5.47
2022-11-05T06:18:48.064Z,4.97
2022-11-05T06:21:17.911Z,6.10
2022-11-05T06:23:49.160Z,6.07
2022-11-05T06:26:18.791Z,5.00
2022-11-05T06:28:47.648Z,4.60
2022-11-05T06:31:17.509Z,4.53
2022-11-05T06:33:47.210Z,5.10
2022-11-05T06:36:16.932Z,4.60
2022-11-05T06:38:45.337Z,4.53
2022-11-05T06:41:13.789Z,5.30
2022-11-05T06:43:42.600Z,5.50
2022-11-05T06:46:11.841Z,6.57
2022-11-05T06:48:41.648Z,5.30
2022-11-05T06:51:10.201Z,4.30
2022-11-05T06:53:38.657Z,4.80
2022-11-05T06:56:07.805Z,5.87
2022-11-05T06:58:36.498Z,7.47
2022-11-05T07:01:05.414Z,4.80
2022-11-05T07:03:34.319Z,6.00
2022-11-05T07:06:05.509Z,5.93
2022-11-05T07:08:34.718Z,6.73
2022-11-05T07:11:03.347Z,5.57
2022-11-05T07:13:32.012Z,5.13
2022-11-05T07:16:00.406Z,5.37
2022-11-05T07:18:28.895Z,5.30
2022-11-05T07:20:57.332Z,5.30
2022-11-05T07:23:27.222Z,6.03
2022-11-05T07:25:55.776Z,4.90
2022-11-05T07:28:24.212Z,5.70
2022-11-05T07:30:52.697Z,6.37
2022-11-05T07:33:21.250Z,6.40
2022-11-05T07:35:49.728Z,7.17
2022-11-05T07:38:19.077Z,6.17
2022-11-05T07:40:48.916Z,6.97
2022-11-05T07:43:17.358Z,6.07
2022-11-05T07:45:47.340Z,6.63
2022-11-05T07:48:15.742Z,6.47
2022-11-05T07:50:44.198Z,6.40
2022-11-05T07:53:14.143Z,6.23
2022-11-05T07:55:43.949Z,8.67
2022-11-05T07:58:14.770Z,8.13
2022-11-05T08:00:44.395Z,7.63
2022-11-05T08:03:17.375Z,7.33
2022-11-05T08:05:47.708Z,6.97
2022-11-05T08:08:17.624Z,7.43
2022-11-05T08:10:46.247Z,7.67
2022-11-05T08:13:16.393Z,8.00
2022-11-05T08:15:45.373Z,7.80
2022-11-05T08:18:14.789Z,8.50
2022-11-05T08:20:43.995Z,7.87
2022-11-05T08:23:12.874Z,7.30
2022-11-05T08:25:42.100Z,7.30
2022-11-05T08:28:13.007Z,7.27
2022-11-05T08:30:43.125Z,7.90
2022-11-05T08:33:13.270Z,6.27
2022-11-05T08:35:42.150Z,8.63
2022-11-05T08:38:13.675Z,8.97
2022-11-05T08:40:42.472Z,7.00
2022-11-05T08:43:12.562Z,7.70
2022-11-05T08:45:43.447Z,8.00
2022-11-05T08:48:12.427Z,6.50
2022-11-05T08:50:40.962Z,6.63
2022-11-05T08:53:10.710Z,6.00
2022-11-05T08:55:39.551Z,6.40
2022-11-05T08:58:09.039Z,6.40
2022-11-05T09:00:38.105Z,6.13
2022-11-05T09:03:09.175Z,6.23
2022-11-05T09:05:39.502Z,5.77
2022-11-05T09:08:08.537Z,6.10
2022-11-05T09:10:37.400Z,6.73
2022-11-05T09:13:06.380Z,6.30
2022-11-05T09:15:35.591Z,6.83
2022-11-05T09:18:05.588Z,7.83
2022-11-05T09:20:36.605Z,6.47
2022-11-05T09:23:05.030Z,5.80
2022-11-05T09:25:33.893Z,6.03
2022-11-05T09:28:16.497Z,4.50
2022-11-05T09:30:46.710Z,5.30
2022-11-05T09:33:15.406Z,5.53
2022-11-05T09:35:45.291Z,5.40
2022-11-05T09:38:14.028Z,5.33
2022-11-05T09:40:45.357Z,5.00
2022-11-05T09:43:18.818Z,5.20
2022-11-05T09:45:49.457Z,5.10
2022-11-05T09:48:19.762Z,4.80
2022-11-05T09:50:50.090Z,4.43
2022-11-05T09:53:19.647Z,3.70
2022-11-05T09:55:50.229Z,3.93
2022-11-05T09:58:25.923Z,5.27
2022-11-05T10:00:57.044Z,4.47
2022-11-05T10:03:26.329Z,4.53
2022-11-05T10:05:57.065Z,4.20
2022-11-05T10:08:27.514Z,4.80
2022-11-05T10:10:56.933Z,4.67
2022-11-05T10:13:27.841Z,4.03
2022-11-05T10:15:59.985Z,5.70
2022-11-05T10:18:30.216Z,4.97
2022-11-05T10:21:00.183Z,5.37
2022-11-05T10:23:29.258Z,4.40
2022-11-05T10:25:58.930Z,3.93
2022-11-05T10:28:28.438Z,4.23
2022-11-05T10:30:59.435Z,3.47
2022-11-05T10:33:37.839Z,3.23
2022-11-05T10:36:09.129Z,3.20
2022-11-05T10:38:37.756Z,3.40
2022-11-05T10:41:11.569Z,3.33
2022-11-05T10:43:42.503Z,3.20
2022-11-05T10:46:18.127Z,3.40
2022-11-05T10:48:52.743Z,2.70
2022-11-05T10:51:22.541Z,3.43
2022-11-05T10:53:57.354Z,2.20
2022-11-05T10:56:30.783Z,2.37
2022-11-05T10:59:00.637Z,2.20
2022-11-05T11:01:29.507Z,2.33
2022-11-05T11:04:07.282Z,2.30
2022-11-05T11:06:39.202Z,2.23
2022-11-05T11:09:08.901Z,2.60
2022-11-05T11:11:39.140Z,1.90
2022-11-05T11:14:19.699Z,1.90
2022-11-05T11:16:50.317Z,2.50
2022-11-05T11:19:31.565Z,2.40
2022-11-05T11:22:21.326Z,2.43
2022-11-05T11:24:51.026Z,2.00
2022-11-05T11:27:23.110Z,2.63
2022-11-05T11:29:54.375Z,2.20
2022-11-05T11:32:23.171Z,2.70
2022-11-05T11:34:53.430Z,2.47
2022-11-05T11:37:25.214Z,3.00
2022-11-05T11:39:54.885Z,2.47
2022-11-05T11:42:25.285Z,2.20
2022-11-05T11:44:53.782Z,2.30
2022-11-05T11:47:23.856Z,2.17
2022-11-05T11:49:53.473Z,2.23
2022-11-05T11:52:28.450Z,2.40
2022-11-05T11:55:09.678Z,2.13
2022-11-05T11:57:45.061Z,2.47
2022-11-05T12:00:14.105Z,2.20
2022-11-05T12:02:47.597Z,2.00
2022-11-05T12:05:19.650Z,1.63
2022-11-05T12:07:53.063Z,2.03
2022-11-05T12:10:32.468Z,1.90
2022-11-05T12:13:09.312Z,1.83
2022-11-05T12:15:43.641Z,1.90
2022-11-05T12:18:15.548Z,1.80
2022-11-05T12:20:58.213Z,1.90
2022-11-05T12:23:41.438Z,1.67
2022-11-05T12:26:15.872Z,2.60
2022-11-05T12:29:17.820Z,2.20
2022-11-05T12:31:52.193Z,2.50
2022-11-05T12:34:27.671Z,2.93
2022-11-05T12:37:11.064Z,2.87
2022-11-05T12:39:44.956Z,2.57
2022-11-05T12:42:21.265Z,2.60
2022-11-05T12:44:54.749Z,3.20
2022-11-05T12:47:33.630Z,3.30
2022-11-05T12:50:06.600Z,3.50
2022-11-05T12:52:59.213Z,4.00
2022-11-05T12:55:30.474Z,4.00
2022-11-05T12:58:01.065Z,4.20
2022-11-05T13:00:31.266Z,4.53
2022-11-05T13:03:06.078Z,4.67
2022-11-05T13:05:36.934Z,4.63
2022-11-05T13:08:07.935Z,4.37
2022-11-05T13:10:41.463Z,5.03
2022-11-05T13:13:14.181Z,4.90
2022-11-05T13:15:47.752Z,5.10
2022-11-05T13:18:18.449Z,4.77
2022-11-05T13:20:50.575Z,5.17
2022-11-05T13:23:21.439Z,5.10
2022-11-05T13:25:52.208Z,4.97
2022-11-05T13:28:27.176Z,7.60
2022-11-05T13:30:57.421Z,6.50
2022-11-05T13:33:27.954Z,6.07
2022-11-05T13:36:28.178Z,7.90
2022-11-05T13:39:01.023Z,6.17
2022-11-05T13:41:37.888Z,7.30
2022-11-05T13:44:13.890Z,5.40
2022-11-05T13:46:49.126Z,6.43
2022-11-05T13:49:25.963Z,6.53
2022-11-05T13:51:55.866Z,5.30
2022-11-05T13:54:49.832Z,5.13
2022-11-05T13:57:28.335Z,4.70
2022-11-05T14:00:03.573Z,4.80
2022-11-05T14:02:37.746Z,6.43
2022-11-05T14:05:07.210Z,5.37
2022-11-05T14:07:38.036Z,5.40
2022-11-05T14:10:15.834Z,6.33
2022-11-05T14:12:48.628Z,6.30
2022-11-05T14:15:19.558Z,7.70
2022-11-05T14:17:58.100Z,8.07
2022-11-05T14:20:58.606Z,7.70
2022-11-05T14:23:39.022Z,6.80
2022-11-05T14:26:15.142Z,7.57
2022-11-05T14:28:52.145Z,8.10
2022-11-05T14:31:40.974Z,8.43
2022-11-05T14:34:24.902Z,7.50
2022-11-05T14:37:11.316Z,6.63
2022-11-05T14:39:40.369Z,5.37
2022-11-05T14:42:12.823Z,5.43
2022-11-05T14:47:36.240Z,5.67
2022-11-05T14:50:09.886Z,5.27
2022-11-05T14:52:39.293Z,5.60
2022-11-05T14:55:09.013Z,5.90
2022-11-05T14:57:56.336Z,5.47
2022-11-05T15:00:44.404Z,5.20
2022-11-05T15:03:47.425Z,5.30
2022-11-05T15:06:33.637Z,4.90
2022-11-05T15:09:21.499Z,6.03
2022-11-05T15:12:02.431Z,5.53
2022-11-05T15:14:33.405Z,5.77
2022-11-05T15:17:04.614Z,5.77
2022-11-05T15:19:34.396Z,4.67
2022-11-05T15:22:04.933Z,6.73
2022-11-05T15:24:33.723Z,5.70
2022-11-05T15:27:05.346Z,6.67
2022-11-05T15:29:34.764Z,6.73
2022-11-05T15:32:03.792Z,5.90
2022-11-05T15:34:33.210Z,5.73
2022-11-05T15:37:02.696Z,6.23
2022-11-05T15:39:35.526Z,5.80
2022-11-05T15:42:07.522Z,6.00
2022-11-05T15:44:40.021Z,6.47
2022-11-05T15:47:15.822Z,7.20
2022-11-05T15:49:45.368Z,7.20
2022-11-05T15:52:15.950Z,7.00
2022-11-05T15:54:44.550Z,6.33
2022-11-05T15:57:26.573Z,7.63
2022-11-05T15:59:55.340Z,6.03
2022-11-05T16:02:29.940Z,8.90
2022-11-05T16:04:58.853Z,9.27
2022-11-05T16:07:27.507Z,7.90
2022-11-05T16:09:57.821Z,8.43
2022-11-05T16:12:37.008Z,10.07
2022-11-05T16:15:19.452Z,9.27
2022-11-05T16:17:49.197Z,8.83
2022-11-05T16:20:35.335Z,7.60
2022-11-05T16:23:04.449Z,10.13
2022-11-05T16:25:42.917Z,9.70
2022-11-05T16:28:22.435Z,8.10
2022-11-05T16:30:54.842Z,8.73
2022-11-05T16:33:23.629Z,9.27
2022-11-05T16:35:52.297Z,9.40
2022-11-05T16:38:21.511Z,8.83
2022-11-05T16:40:49.995Z,8.90
2022-11-05T16:43:20.298Z,9.60
2022-11-05T16:45:50.536Z,10.23
2022-11-05T16:48:19.011Z,11.23
2022-11-05T16:50:47.589Z,10.23
2022-11-05T16:53:16.379Z,10.40
2022-11-05T16:55:48.106Z,10.00
2022-11-05T16:58:20.720Z,10.10
2022-11-05T17:00:51.379Z,9.77
2022-11-05T17:03:20.597Z,9.60
2022-11-05T17:05:49.504Z,9.77
2022-11-05T17:08:18.021Z,11.77
2022-11-05T17:10:46.488Z,12.40
2022-11-05T17:13:15.967Z,9.80
2022-11-05T17:15:45.265Z,9.43
2022-11-05T17:18:18.921Z,11.17
2022-11-05T17:20:48.304Z,10.70
2022-11-05T17:23:17.697Z,10.53
2022-11-05T17:25:47.870Z,10.27
2022-11-05T17:28:16.794Z,12.70
2022-11-05T17:30:51.978Z,11.80
2022-11-05T17:33:23.587Z,10.80
2022-11-05T17:35:52.390Z,11.57
2022-11-05T17:38:21.450Z,12.27
2022-11-05T17:40:49.873Z,11.57
2022-11-05T17:43:21.424Z,11.90
2022-11-05T17:45:53.900Z,11.47
2022-11-05T17:48:23.785Z,11.87
2022-11-05T17:50:52.563Z,10.63
2022-11-05T17:53:21.225Z,12.00
2022-11-05T17:55:50.102Z,11.53
2022-11-05T17:58:18.540Z,11.97
2022-11-05T18:00:47.890Z,10.73
2022-11-05T18:03:16.910Z,10.20
2022-11-05T18:05:46.954Z,10.23
2022-11-05T18:08:15.646Z,10.90
2022-11-05T18:10:44.247Z,10.17
2022-11-05T18:13:13.002Z,10.77
2022-11-05T18:15:41.999Z,9.83
2022-11-05T18:18:10.750Z,11.20
2022-11-05T18:20:39.415Z,11.10
2022-11-05T18:23:09.554Z,11.13
2022-11-05T18:25:38.091Z,9.67
2022-11-05T18:28:06.595Z,11.03
2022-11-05T18:30:35.132Z,11.50
2022-11-05T18:33:03.584Z,12.00
2022-11-05T18:35:32.591Z,10.60
2022-11-05T18:38:01.132Z,11.23
2022-11-05T18:40:30.905Z,12.93
2022-11-05T18:42:59.338Z,10.53
2022-11-05T18:45:29.900Z,13.47
2022-11-05T18:47:58.878Z,12.57
2022-11-05T18:50:27.269Z,13.80
2022-11-05T18:52:55.670Z,11.97
2022-11-05T18:55:24.179Z,12.07
2022-11-05T18:57:54.134Z,15.03
2022-11-05T19:00:22.700Z,12.90
2022-11-05T19:02:51.227Z,12.97
2022-11-05T19:05:29.011Z,15.43
2022-11-05T19:07:57.713Z,16.27
2022-11-05T19:10:26.211Z,15.00
2022-11-05T19:12:56.237Z,16.30
2022-11-05T19:15:24.659Z,14.57
2022-11-05T19:17:53.060Z,16.10
2022-11-05T19:20:21.524Z,15.77
2022-11-05T19:22:50.176Z,14.27
2022-11-05T19:25:18.570Z,11.73
2022-11-05T19:27:47.019Z,13.20
2022-11-05T19:30:16.870Z,17.03
2022-11-05T19:32:45.283Z,13.90
2022-11-05T19:35:13.676Z,15.33
2022-11-05T19:37:42.154Z,16.37
2022-11-05T19:40:11.245Z,15.13
2022-11-05T19:42:39.670Z,15.83
2022-11-05T19:45:38.169Z,14.30
2022-11-05T19:47:58.492Z,16.10
2022-11-05T19:50:28.398Z,15.37
2022-11-05T19:52:56.849Z,13.67
2022-11-05T19:55:25.302Z,14.33
2022-11-05T19:57:55.197Z,15.90
2022-11-05T20:00:23.710Z,13.60
2022-11-05T20:02:52.307Z,14.00
2022-11-05T20:05:22.720Z,15.43
2022-11-05T20:07:53.147Z,14.83
2022-11-05T20:10:22.211Z,14.13
2022-11-05T20:12:50.887Z,14.93
2022-11-05T20:15:19.883Z,13.83
2022-11-05T20:17:52.126Z,14.93
2022-11-05T20:20:22.544Z,15.33
2022-11-05T20:22:52.882Z,21.30
2022-11-05T20:25:21.401Z,17.33
2022-11-05T20:27:52.072Z,16.47
2022-11-05T20:30:20.544Z,17.13
2022-11-05T20:32:48.999Z,18.83
2022-11-05T20:35:17.463Z,16.13
2022-11-05T20:37:51.237Z,15.70
2022-11-05T20:40:22.736Z,16.87
2022-11-05T20:42:51.363Z,14.50
2022-11-05T20:45:19.935Z,16.00
2022-11-05T20:47:48.384Z,18.00
2022-11-05T20:50:17.542Z,16.53
2022-11-05T20:52:49.725Z,16.90
2022-11-05T20:55:18.223Z,16.03
2022-11-05T20:57:46.615Z,15.00
2022-11-05T21:00:29.579Z,15.83
2022-11-05T21:02:58.184Z,17.40
2022-11-05T21:05:30.071Z,16.80
2022-11-05T21:08:04.120Z,18.70
2022-11-05T21:10:32.714Z,16.50
2022-11-05T21:13:01.240Z,15.40
2022-11-05T21:15:29.644Z,15.40
2022-11-05T21:17:58.111Z,14.80
2022-11-05T21:20:26.545Z,17.53
2022-11-05T21:22:55.040Z,17.47
2022-11-05T21:25:24.791Z,13.93
2022-11-05T21:27:53.441Z,16.13
2022-11-05T21:30:21.853Z,17.53
2022-11-05T21:32:50.295Z,14.77
2022-11-05T21:35:18.770Z,16.43
2022-11-05T21:37:47.254Z,16.70
2022-11-05T21:40:15.891Z,16.53
2022-11-05T21:42:46.083Z,15.37
2022-11-05T21:45:14.513Z,18.17
2022-11-05T21:47:42.924Z,17.43
2022-11-05T21:50:11.843Z,15.03
2022-11-05T21:52:57.753Z,17.00
2022-11-05T21:55:43.562Z,18.50
2022-11-05T21:58:32.487Z,17.70
2022-11-05T22:01:01.890Z,14.63
2022-11-05T22:03:30.728Z,17.10
2022-11-05T22:05:59.177Z,16.10
2022-11-05T22:08:27.619Z,16.87
2022-11-05T22:10:55.990Z,18.30
2022-11-05T22:13:25.876Z,15.20
2022-11-05T22:15:57.073Z,16.87
2022-11-05T22:18:25.470Z,16.50
2022-11-05T22:20:53.869Z,14.70
2022-11-05T22:23:22.265Z,17.53
2022-11-05T22:25:50.647Z,14.73
2022-11-05T22:28:19.056Z,18.37
2022-11-05T22:30:48.811Z,18.43
2022-11-05T22:33:17.258Z,16.47
2022-11-05T22:35:45.587Z,16.27
2022-11-05T22:38:14.415Z,14.90
2022-11-05T22:40:43.114Z,15.70
2022-11-05T22:43:11.618Z,16.07
2022-11-05T22:45:39.986Z,15.20
2022-11-05T22:48:10.189Z,14.50
2022-11-05T22:50:38.908Z,14.20
2022-11-05T22:53:07.560Z,15.53
2022-11-05T22:55:40.285Z,13.93
2022-11-05T22:58:08.866Z,16.10
2022-11-05T23:00:38.635Z,15.93
2022-11-05T23:03:07.214Z,14.03
2022-11-05T23:05:37.563Z,15.63
2022-11-05T23:08:23.947Z,14.77
2022-11-05T23:11:09.937Z,14.87
2022-11-05T23:13:38.371Z,14.40
2022-11-05T23:16:24.805Z,14.60
2022-11-05T23:19:11.115Z,15.50
2022-11-05T23:22:04.036Z,14.93
2022-11-05T23:24:32.438Z,15.63
2022-11-05T23:27:00.889Z,13.77
2022-11-05T23:29:29.345Z,16.63
2022-11-05T23:32:15.634Z,17.93
2022-11-05T23:34:44.163Z,14.60
2022-11-05T23:37:31.476Z,15.17
2022-11-05T23:39:59.899Z,16.03
2022-11-05T23:42:45.773Z,16.37
2022-11-05T23:45:47.200Z,16.63
2022-11-05T23:48:19.021Z,13.23
2022-11-05T23:50:48.704Z,14.83
2022-11-05T23:53:18.545Z,17.17
2022-11-05T23:55:47.288Z,14.23
2022-11-05T23:58:16.601Z,16.20
